Time;durP1;ratioP1;P1;durP2;ratioP2;P2;SDS_P1;SDS_P2;PMS_P1;PMS_P2;Temp;Humidity;BMP_temperature;BMP_pressure;BME280_temperature;BME280_humidity;BME280_pressure;Samples;Min_cycle;Max_cycle;Signal;HPM_P1;HPM_P2
2023/08/26 00:00:43;;;;;;;15.87;13.40;;;27.40;99.90;;;;;;4830377;29;20282;-83
2023/08/26 00:03:08;;;;;;;14.33;12.93;;;27.40;99.90;;;;;;4830183;29;20784;-84
2023/08/26 00:05:34;;;;;;;17.67;12.77;;;27.30;99.90;;;;;;4816934;29;20442;-83
2023/08/26 00:08:01;;;;;;;14.90;12.80;;;27.30;99.90;;;;;;4830553;29;20276;-84
2023/08/26 00:10:26;;;;;;;17.53;13.50;;;27.30;99.90;;;;;;4830563;29;20210;-83
2023/08/26 00:12:52;;;;;;;17.67;13.23;;;27.30;99.90;;;;;;4829947;29;20847;-82
2023/08/26 00:15:18;;;;;;;14.67;12.70;;;27.30;99.90;;;;;;4816768;29;20267;-84
2023/08/26 00:17:44;;;;;;;14.27;12.87;;;27.30;99.90;;;;;;4816157;29;20753;-82
2023/08/26 00:20:10;;;;;;;15.13;12.70;;;27.30;99.90;;;;;;4831754;29;20464;-85
2023/08/26 00:22:37;;;;;;;14.13;12.73;;;27.30;99.90;;;;;;4833314;29;20274;-84
2023/08/26 00:25:03;;;;;;;15.60;13.37;;;27.20;99.90;;;;;;4833343;29;20309;-82
2023/08/26 00:27:29;;;;;;;16.13;12.60;;;27.20;99.90;;;;;;4833801;29;20432;-82
2023/08/26 00:29:54;;;;;;;21.03;14.10;;;27.20;99.90;;;;;;4833569;29;20461;-82
2023/08/26 00:32:20;;;;;;;15.43;12.17;;;27.10;99.90;;;;;;4833158;29;20209;-84
2023/08/26 00:34:46;;;;;;;15.50;13.00;;;27.10;99.90;;;;;;4833391;29;20266;-85
2023/08/26 00:37:14;;;;;;;15.93;12.83;;;27.10;99.90;;;;;;4833730;29;20269;-85
2023/08/26 00:39:39;;;;;;;18.27;12.53;;;27.10;99.90;;;;;;4833623;29;20210;-82
2023/08/26 00:42:05;;;;;;;14.73;13.23;;;27.10;99.90;;;;;;4819529;29;20495;-82
2023/08/26 00:44:31;;;;;;;17.73;15.10;;;27.10;99.90;;;;;;4833779;29;20234;-84
2023/08/26 00:46:59;;;;;;;18.80;13.40;;;27.10;99.90;;;;;;4833220;29;20193;-84
2023/08/26 00:49:25;;;;;;;15.53;13.97;;;27.00;99.90;;;;;;4833373;29;20365;-84
2023/08/26 00:51:51;;;;;;;17.70;13.47;;;27.00;99.90;;;;;;4819607;29;20492;-83
2023/08/26 00:54:17;;;;;;;18.00;14.23;;;27.00;99.90;;;;;;4833073;29;20234;-84
2023/08/26 00:56:43;;;;;;;17.27;14.33;;;26.90;99.90;;;;;;4833194;29;20481;-85
2023/08/26 00:59:10;;;;;;;15.80;14.13;;;26.90;99.90;;;;;;4833257;29;20789;-83
2023/08/26 01:01:36;;;;;;;15.27;13.87;;;26.90;99.90;;;;;;4819197;29;20766;-85
2023/08/26 01:04:02;;;;;;;17.03;13.90;;;26.80;99.90;;;;;;4818977;29;20922;-85
2023/08/26 01:06:28;;;;;;;16.07;14.47;;;26.80;99.90;;;;;;4819027;29;20453;-83
2023/08/26 01:08:54;;;;;;;15.17;13.57;;;26.70;99.90;;;;;;4832888;29;20547;-82
2023/08/26 01:11:23;;;;;;;16.07;13.10;;;26.70;99.90;;;;;;4832981;29;20273;-83
2023/08/26 01:14:04;;;;;;;15.57;13.97;;;26.60;99.90;;;;;;4818822;29;20928;-83
2023/08/26 01:16:33;;;;;;;15.63;13.93;;;26.60;99.90;;;;;;4819198;29;20521;-83
2023/08/26 01:19:00;;;;;;;17.53;14.97;;;26.50;99.90;;;;;;4832765;29;20726;-84
2023/08/26 01:21:34;;;;;;;17.03;14.77;;;26.50;99.90;;;;;;4832787;29;20517;-83
2023/08/26 01:24:00;;;;;;;20.53;16.40;;;26.40;99.90;;;;;;4831958;29;20574;-82
2023/08/26 01:26:26;;;;;;;15.13;13.60;;;26.40;99.90;;;;;;4832759;29;20460;-85
2023/08/26 01:28:51;;;;;;;18.73;14.73;;;26.30;99.90;;;;;;4818672;29;20417;-81
2023/08/26 01:31:21;;;;;;;17.43;15.00;;;26.30;99.90;;;;;;4831773;29;20504;-85
2023/08/26 01:33:55;;;;;;;20.60;14.13;;;26.20;99.90;;;;;;4818142;29;20274;-83
2023/08/26 01:36:25;;;;;;;20.60;15.40;;;26.20;99.90;;;;;;4819072;29;20453;-84
2023/08/26 01:38:52;;;;;;;19.97;13.93;;;26.20;99.90;;;;;;4832546;29;20437;-82
2023/08/26 01:41:19;;;;;;;17.17;15.47;;;26.20;99.90;;;;;;4832701;29;20861;-83
2023/08/26 01:43:47;;;;;;;14.90;13.33;;;26.20;99.90;;;;;;4818330;29;20511;-83
2023/08/26 01:46:14;;;;;;;17.47;14.60;;;26.20;99.90;;;;;;4818947;29;20474;-82
2023/08/26 01:48:40;;;;;;;17.57;14.97;;;26.20;99.90;;;;;;4807246;29;20508;-83
2023/08/26 01:51:05;;;;;;;16.57;14.97;;;26.20;99.90;;;;;;4818336;29;20922;-84
2023/08/26 01:53:33;;;;;;;15.57;14.00;;;26.20;99.90;;;;;;4818570;29;20204;-82
2023/08/26 01:55:59;;;;;;;15.77;14.23;;;26.20;99.90;;;;;;4815816;29;20500;-84
2023/08/26 01:58:24;;;;;;;17.70;15.10;;;26.10;99.90;;;;;;4817078;29;20459;-84
2023/08/26 02:00:50;;;;;;;16.67;14.93;;;26.20;99.90;;;;;;4818360;29;20384;-83
2023/08/26 02:03:16;;;;;;;18.83;15.70;;;26.10;99.90;;;;;;4817005;29;20236;-83
2023/08/26 02:05:41;;;;;;;18.07;14.90;;;26.00;99.90;;;;;;4816554;29;20240;-85
2023/08/26 02:08:07;;;;;;;16.50;14.40;;;26.00;99.90;;;;;;4816637;29;20186;-84
2023/08/26 02:10:33;;;;;;;20.10;15.90;;;26.00;99.90;;;;;;4816866;29;20262;-85
2023/08/26 02:12:58;;;;;;;16.83;15.00;;;26.00;99.90;;;;;;4817882;29;20242;-83
2023/08/26 02:15:24;;;;;;;19.53;17.43;;;25.90;99.90;;;;;;4818054;29;20368;-85
2023/08/26 02:17:49;;;;;;;20.33;15.93;;;25.90;99.90;;;;;;4816395;29;20205;-82
2023/08/26 02:20:15;;;;;;;22.80;17.60;;;25.80;99.90;;;;;;4817006;29;20559;-85
2023/08/26 02:22:41;;;;;;;20.17;16.60;;;25.80;99.90;;;;;;4816789;29;20214;-83
2023/08/26 02:25:07;;;;;;;20.40;17.17;;;25.70;99.90;;;;;;4816396;29;20213;-83
2023/08/26 02:27:33;;;;;;;27.17;18.10;;;25.70;99.90;;;;;;4816491;29;20613;-83
2023/08/26 02:29:59;;;;;;;21.10;17.27;;;25.60;99.90;;;;;;4816700;29;20496;-83
2023/08/26 02:32:24;;;;;;;18.80;16.93;;;25.60;99.90;;;;;;4817311;29;20347;-82
2023/08/26 02:34:50;;;;;;;19.43;17.47;;;25.50;99.90;;;;;;4816175;29;20669;-83
2023/08/26 02:37:16;;;;;;;25.10;17.77;;;25.40;99.90;;;;;;4816493;29;20644;-82
2023/08/26 02:39:41;;;;;;;23.50;16.60;;;25.40;99.90;;;;;;4816526;29;20694;-82
2023/08/26 02:42:07;;;;;;;18.00;15.77;;;25.40;99.90;;;;;;4815860;29;20224;-83
2023/08/26 02:44:33;;;;;;;17.77;16.17;;;25.40;99.90;;;;;;4817721;29;20178;-83
2023/08/26 02:46:59;;;;;;;19.43;16.30;;;25.40;99.90;;;;;;4817369;29;20202;-84
2023/08/26 02:49:26;;;;;;;26.07;18.20;;;25.40;99.90;;;;;;4816305;29;20696;-85
2023/08/26 02:51:52;;;;;;;20.03;17.27;;;25.40;99.90;;;;;;4816414;29;20186;-82
2023/08/26 02:54:18;;;;;;;19.23;17.10;;;25.40;99.90;;;;;;4816216;29;20501;-85
2023/08/26 02:56:43;;;;;;;19.00;16.53;;;25.40;99.90;;;;;;4817474;29;20233;-85
2023/08/26 02:59:09;;;;;;;20.73;17.10;;;25.40;99.90;;;;;;4816032;29;20193;-82
2023/08/26 03:01:36;;;;;;;19.50;17.60;;;25.40;99.90;;;;;;4817724;29;20650;-85
2023/08/26 03:04:03;;;;;;;19.33;16.53;;;25.40;99.90;;;;;;4816102;29;20190;-83
2023/08/26 03:06:29;;;;;;;18.57;16.80;;;25.40;99.90;;;;;;4817481;29;20469;-82
2023/08/26 03:08:55;;;;;;;20.60;17.67;;;25.40;99.90;;;;;;4817196;29;20984;-83
2023/08/26 03:11:22;;;;;;;22.90;16.23;;;25.30;99.90;;;;;;4817457;29;20465;-82
2023/08/26 03:13:49;;;;;;;18.43;16.30;;;25.40;99.90;;;;;;4815849;29;20678;-85
2023/08/26 03:16:15;;;;;;;19.97;17.93;;;25.40;99.90;;;;;;4816071;29;20727;-84
2023/08/26 03:18:41;;;;;;;22.53;16.97;;;25.40;99.90;;;;;;4817121;29;20410;-84
2023/08/26 03:21:09;;;;;;;20.67;18.57;;;25.40;99.90;;;;;;4815951;29;20543;-85
2023/08/26 03:23:35;;;;;;;20.00;16.97;;;25.40;99.90;;;;;;4815964;29;20299;-84
2023/08/26 03:26:02;;;;;;;19.97;17.97;;;25.40;99.90;;;;;;4815663;29;20453;-85
2023/08/26 03:28:27;;;;;;;19.30;16.57;;;25.40;99.90;;;;;;4815819;29;21022;-84
2023/08/26 03:30:53;;;;;;;30.60;16.97;;;25.40;99.90;;;;;;4815486;29;20499;-83
2023/08/26 03:33:19;;;;;;;19.77;17.77;;;25.30;99.90;;;;;;4816765;29;20288;-82
2023/08/26 03:35:44;;;;;;;22.47;18.00;;;25.30;99.90;;;;;;4816785;29;20213;-84
2023/08/26 03:38:10;;;;;;;19.53;17.30;;;25.30;99.90;;;;;;4815550;29;20276;-82
2023/08/26 03:40:42;;;;;;;22.10;17.40;;;25.20;99.90;;;;;;4815656;29;20316;-83
2023/08/26 03:43:08;;;;;;;20.33;18.23;;;25.20;99.90;;;;;;4816695;29;20241;-83
2023/08/26 03:45:34;;;;;;;21.80;18.37;;;25.20;99.90;;;;;;4815866;29;20497;-83
2023/08/26 03:48:00;;;;;;;22.67;18.00;;;25.10;99.90;;;;;;4815458;29;20423;-85
2023/08/26 03:50:25;;;;;;;20.53;18.43;;;25.10;99.90;;;;;;4815520;29;20459;-84
2023/08/26 03:52:51;;;;;;;19.97;17.87;;;25.00;99.90;;;;;;4815284;29;20670;-83
2023/08/26 03:55:17;;;;;;;21.93;18.07;;;25.00;99.90;;;;;;4818135;29;20233;-83
2023/08/26 03:57:42;;;;;;;19.43;17.37;;;25.00;99.90;;;;;;4833620;29;20181;-83
2023/08/26 04:00:08;;;;;;;23.07;19.70;;;25.00;99.90;;;;;;4820402;29;20210;-82
2023/08/26 04:02:34;;;;;;;25.57;20.03;;;24.90;99.90;;;;;;4818490;29;20303;-84
2023/08/26 04:04:59;;;;;;;22.33;20.03;;;24.90;99.90;;;;;;4818606;29;20617;-84
2023/08/26 04:07:25;;;;;;;22.40;19.13;;;24.80;99.90;;;;;;4820216;29;20926;-82
2023/08/26 04:09:51;;;;;;;21.43;19.30;;;24.80;99.90;;;;;;4818567;29;20699;-85
2023/08/26 04:12:16;;;;;;;22.37;20.00;;;24.70;99.90;;;;;;4819888;29;20178;-83
2023/08/26 04:14:42;;;;;;;23.77;21.30;;;24.70;99.90;;;;;;4820037;29;20233;-83
2023/08/26 04:17:08;;;;;;;22.00;19.67;;;24.70;99.90;;;;;;4819794;29;20205;-83
2023/08/26 04:19:33;;;;;;;22.83;20.43;;;24.70;99.90;;;;;;4820279;29;20178;-85
2023/08/26 04:22:00;;;;;;;24.93;19.90;;;24.70;99.90;;;;;;4819589;29;20246;-83
2023/08/26 04:24:26;;;;;;;21.83;19.50;;;24.80;99.90;;;;;;4819376;29;20218;-83
2023/08/26 04:26:52;;;;;;;27.27;20.53;;;24.80;99.90;;;;;;4818027;29;20421;-84
2023/08/26 04:29:18;;;;;;;22.20;19.20;;;24.90;99.90;;;;;;4818591;29;20785;-85
2023/08/26 04:31:43;;;;;;;21.70;19.50;;;24.90;99.90;;;;;;4819452;29;20655;-85
2023/08/26 04:34:09;;;;;;;22.40;19.93;;;24.90;99.90;;;;;;4818020;29;20185;-82
2023/08/26 04:36:34;;;;;;;22.80;20.47;;;24.90;99.90;;;;;;4818144;29;20303;-83
2023/08/26 04:39:00;;;;;;;22.10;19.80;;;24.90;99.90;;;;;;4819816;29;20234;-84
2023/08/26 04:41:26;;;;;;;22.27;19.90;;;24.90;99.90;;;;;;4819484;29;20412;-84
2023/08/26 04:43:56;;;;;;;22.20;19.87;;;24.90;99.90;;;;;;4833434;29;20570;-84
2023/08/26 04:46:21;;;;;;;21.57;19.37;;;24.90;99.90;;;;;;4818294;29;20537;-83
2023/08/26 04:48:47;;;;;;;26.10;19.77;;;24.90;99.90;;;;;;4819255;29;20512;-83
2023/08/26 04:51:13;;;;;;;25.33;20.90;;;25.00;99.90;;;;;;4819448;29;20252;-85
2023/08/26 04:53:38;;;;;;;30.37;19.83;;;25.00;99.90;;;;;;4819136;29;20425;-83
2023/08/26 04:56:04;;;;;;;22.00;19.47;;;25.00;99.90;;;;;;4817449;29;20495;-82
2023/08/26 04:58:31;;;;;;;22.57;20.13;;;24.90;99.90;;;;;;4819703;29;20213;-82
2023/08/26 05:00:57;;;;;;;28.33;20.00;;;24.90;99.90;;;;;;4819106;29;20205;-82
2023/08/26 05:03:23;;;;;;;24.80;22.23;;;24.90;99.90;;;;;;4817658;29;21025;-83
2023/08/26 05:05:48;;;;;;;22.40;20.20;;;24.90;99.90;;;;;;4818593;29;20461;-83
2023/08/26 05:08:14;;;;;;;27.83;22.83;;;25.00;99.90;;;;;;4817343;29;20238;-83
2023/08/26 05:10:40;;;;;;;23.07;19.90;;;25.00;99.90;;;;;;4819208;29;20213;-83
2023/08/26 05:13:06;;;;;;;22.90;19.90;;;25.00;99.90;;;;;;4818819;29;20226;-85
2023/08/26 05:15:32;;;;;;;26.87;20.83;;;25.00;99.90;;;;;;4817996;29;20481;-85
2023/08/26 05:17:58;;;;;;;26.47;23.30;;;25.00;99.90;;;;;;4817391;29;20186;-85
2023/08/26 05:20:24;;;;;;;22.53;20.10;;;25.10;99.90;;;;;;4817855;29;20767;-85
2023/08/26 05:22:50;;;;;;;24.87;22.30;;;25.10;99.90;;;;;;4816693;29;20321;-83
2023/08/26 05:25:15;;;;;;;25.03;22.33;;;25.20;99.90;;;;;;4817254;29;20210;-82
2023/08/26 05:27:41;;;;;;;23.73;21.07;;;25.20;99.90;;;;;;4832830;29;20186;-83
2023/08/26 05:30:07;;;;;;;26.33;21.63;;;25.30;99.90;;;;;;4817246;29;20214;-83
2023/08/26 05:32:34;;;;;;;24.40;21.80;;;25.40;99.90;;;;;;4818501;29;20256;-82
2023/08/26 05:34:59;;;;;;;26.60;21.57;;;25.50;99.90;;;;;;4817062;29;20813;-84
2023/08/26 05:37:25;;;;;;;25.50;22.07;;;25.50;99.90;;;;;;4816979;29;20520;-83
2023/08/26 05:39:51;;;;;;;22.30;20.00;;;25.60;99.90;;;;;;4817020;29;20706;-84
2023/08/26 05:42:16;;;;;;;27.07;21.37;;;25.60;99.90;;;;;;4832490;29;20790;-84
2023/08/26 05:44:42;;;;;;;26.53;22.70;;;25.60;99.90;;;;;;4817123;29;20296;-83
2023/08/26 05:47:08;;;;;;;21.03;19.03;;;25.60;99.90;;;;;;4818359;29;20504;-82
2023/08/26 05:49:33;;;;;;;24.27;21.80;;;25.60;99.90;;;;;;4817438;29;20194;-83
2023/08/26 05:51:59;;;;;;;24.37;21.87;;;25.60;99.90;;;;;;4816682;29;20856;-82
2023/08/26 05:54:25;;;;;;;25.70;23.03;;;25.80;99.90;;;;;;4817106;29;20420;-84
2023/08/26 05:56:50;;;;;;;24.70;22.27;;;25.80;99.90;;;;;;4816937;29;20241;-85
2023/08/26 05:59:16;;;;;;;24.43;22.03;;;25.80;99.90;;;;;;4817970;29;20183;-84
2023/08/26 06:01:42;;;;;;;23.17;20.67;;;25.90;99.90;;;;;;4817000;29;20182;-84
2023/08/26 06:04:08;;;;;;;25.00;22.47;;;26.00;99.90;;;;;;4816271;29;20182;-85
2023/08/26 06:06:34;;;;;;;30.17;22.20;;;26.00;99.90;;;;;;4816437;29;20478;-84
2023/08/26 06:09:00;;;;;;;23.63;20.53;;;26.10;99.90;;;;;;4816932;29;20460;-84
2023/08/26 06:11:26;;;;;;;24.27;21.67;;;26.20;99.90;;;;;;4818037;29;20202;-83
2023/08/26 06:13:52;;;;;;;26.57;20.33;;;26.30;99.90;;;;;;4818103;29;20214;-86
2023/08/26 06:16:20;;;;;;;22.20;20.00;;;26.40;99.90;;;;;;4818052;29;21152;-85
2023/08/26 06:18:46;;;;;;;21.70;19.40;;;26.50;99.90;;;;;;4815359;29;20194;-82
2023/08/26 06:21:12;;;;;;;21.97;19.57;;;26.60;99.90;;;;;;4830222;29;20466;-85
2023/08/26 06:23:37;;;;;;;22.30;20.10;;;26.70;99.90;;;;;;4814782;29;20503;-85
2023/08/26 06:26:03;;;;;;;22.33;20.23;;;26.80;99.90;;;;;;4814415;29;20236;-83
2023/08/26 06:28:30;;;;;;;23.07;19.97;;;26.90;99.90;;;;;;4814478;29;20220;-83
2023/08/26 06:31:00;;;;;;;22.00;19.80;;;26.90;99.90;;;;;;4814666;29;20508;-84
2023/08/26 06:33:26;;;;;;;22.20;19.90;;;27.00;99.90;;;;;;4816737;29;20458;-84
2023/08/26 06:35:52;;;;;;;23.13;21.00;;;27.10;99.90;;;;;;4815991;29;20804;-83
2023/08/26 06:38:18;;;;;;;21.20;19.10;;;27.20;99.90;;;;;;4816342;29;20489;-83
2023/08/26 06:40:52;;;;;;;19.10;17.33;;;27.30;99.90;;;;;;4831375;29;20571;-86
2023/08/26 06:43:17;;;;;;;21.57;19.37;;;27.40;99.90;;;;;;4816422;29;20519;-85
2023/08/26 06:45:43;;;;;;;22.13;19.90;;;27.50;99.90;;;;;;4816359;29;20888;-84
2023/08/26 06:48:09;;;;;;;21.13;18.93;;;27.60;99.90;;;;;;4815910;29;20199;-85
2023/08/26 06:50:34;;;;;;;21.10;18.83;;;27.70;99.90;;;;;;4817772;29;20214;-84
2023/08/26 06:53:00;;;;;;;19.20;17.40;;;27.70;99.90;;;;;;4816011;29;20190;-82
2023/08/26 06:55:25;;;;;;;20.80;18.50;;;27.80;99.90;;;;;;4816208;29;20242;-82
2023/08/26 06:57:51;;;;;;;19.27;17.53;;;28.00;99.90;;;;;;4815807;29;20186;-83
2023/08/26 07:00:18;;;;;;;19.50;17.60;;;28.00;99.90;;;;;;4816903;29;20601;-83
2023/08/26 07:02:43;;;;;;;19.73;17.67;;;28.20;99.90;;;;;;4817367;29;20251;-82
2023/08/26 07:05:09;;;;;;;19.63;17.70;;;28.20;99.90;;;;;;4816075;29;20462;-83
2023/08/26 07:07:36;;;;;;;18.50;16.57;;;28.30;99.90;;;;;;4831080;29;20195;-84
2023/08/26 07:10:03;;;;;;;19.20;17.40;;;28.40;99.90;;;;;;4817296;29;20349;-84
2023/08/26 07:12:29;;;;;;;20.13;18.03;;;28.50;99.90;;;;;;4817233;29;20428;-83
2023/08/26 07:14:55;;;;;;;17.50;15.53;;;28.60;99.90;;;;;;4817541;29;20536;-82
2023/08/26 07:17:21;;;;;;;18.43;16.50;;;28.70;99.90;;;;;;4815826;29;20472;-84
2023/08/26 07:19:47;;;;;;;19.33;17.37;;;28.80;99.90;;;;;;4815734;29;20666;-83
2023/08/26 07:22:12;;;;;;;18.60;16.70;;;28.90;99.90;;;;;;4816017;29;20462;-84
2023/08/26 07:24:38;;;;;;;18.43;16.17;;;29.00;99.90;;;;;;4815798;29;20208;-83
2023/08/26 07:27:04;;;;;;;18.27;16.37;;;29.10;99.90;;;;;;4814866;29;20189;-82
2023/08/26 07:29:36;;;;;;;21.50;16.77;;;29.20;99.90;;;;;;4816458;29;20189;-84
2023/08/26 07:32:02;;;;;;;16.20;14.60;;;29.30;99.90;;;;;;4816557;29;20421;-84
2023/08/26 07:34:28;;;;;;;17.43;15.83;;;29.40;99.90;;;;;;4816972;29;20940;-83
2023/08/26 07:36:54;;;;;;;16.73;15.03;;;29.40;99.90;;;;;;4816825;29;20220;-83
2023/08/26 07:39:21;;;;;;;18.57;16.63;;;29.50;99.90;;;;;;4817338;29;20200;-84
2023/08/26 07:41:47;;;;;;;17.80;16.10;;;29.70;99.90;;;;;;4815599;29;20662;-83
2023/08/26 07:44:12;;;;;;;17.00;15.40;;;29.70;99.90;;;;;;4816988;29;20425;-83
2023/08/26 07:46:38;;;;;;;16.30;14.80;;;29.80;99.90;;;;;;4815838;29;20247;-82
2023/08/26 07:49:04;;;;;;;19.27;15.30;;;29.90;99.90;;;;;;4815035;29;20192;-82
2023/08/26 07:51:30;;;;;;;16.80;15.10;;;30.10;99.90;;;;;;4815049;29;20216;-84
2023/08/26 07:53:55;;;;;;;18.37;15.80;;;30.20;99.90;;;;;;4815907;29;20193;-83
2023/08/26 07:56:21;;;;;;;15.87;14.33;;;30.30;99.90;;;;;;4815653;29;20699;-83
2023/08/26 07:58:46;;;;;;;15.90;13.97;;;30.40;99.90;;;;;;4815334;29;20555;-83
2023/08/26 08:01:13;;;;;;;15.03;13.70;;;30.60;99.90;;;;;;4816637;29;20224;-83
2023/08/26 08:03:39;;;;;;;16.80;14.47;;;30.70;99.90;;;;;;4816359;29;20214;-83
2023/08/26 08:06:04;;;;;;;15.27;13.67;;;30.80;99.90;;;;;;4816771;29;20463;-83
2023/08/26 08:08:30;;;;;;;15.20;13.90;;;30.90;99.90;;;;;;4817131;29;20192;-84
2023/08/26 08:10:55;;;;;;;14.70;13.40;;;31.00;99.90;;;;;;4816578;29;20613;-83
2023/08/26 08:13:21;;;;;;;16.33;14.43;;;31.20;99.90;;;;;;4816615;29;20704;-83
2023/08/26 08:15:47;;;;;;;16.40;14.77;;;31.20;99.90;;;;;;4816481;29;20296;-84
2023/08/26 08:18:13;;;;;;;14.63;13.33;;;31.30;99.90;;;;;;4816491;29;20379;-83
2023/08/26 08:20:38;;;;;;;15.10;13.60;;;31.40;99.90;;;;;;4816863;29;20217;-84
2023/08/26 08:23:05;;;;;;;16.10;14.40;;;31.50;99.90;;;;;;4816056;29;20368;-85
2023/08/26 08:25:31;;;;;;;21.30;14.77;;;31.50;99.90;;;;;;4815130;29;20245;-85
2023/08/26 08:27:56;;;;;;;17.43;15.33;;;31.60;99.90;;;;;;4813948;29;20426;-84
2023/08/26 08:30:22;;;;;;;15.90;14.37;;;31.70;99.90;;;;;;4816475;29;20264;-85
2023/08/26 08:32:49;;;;;;;17.80;15.30;;;31.70;99.90;;;;;;4816109;29;20174;-85
2023/08/26 08:35:14;;;;;;;16.83;14.10;;;31.80;99.90;;;;;;4814624;29;20999;-84
2023/08/26 08:37:40;;;;;;;15.43;13.90;;;31.90;99.90;;;;;;4814781;29;20421;-83
2023/08/26 08:40:06;;;;;;;15.30;13.50;;;32.00;99.90;;;;;;4816196;29;20449;-84
2023/08/26 08:42:36;;;;;;;16.20;14.03;;;32.20;99.90;;;;;;4818958;29;20213;-84
2023/08/26 08:45:05;;;;;;;15.57;13.97;;;32.20;99.90;;;;;;4818354;29;20550;-85
2023/08/26 08:47:31;;;;;;;14.27;13.13;;;32.30;99.90;;;;;;4818677;29;21084;-83
2023/08/26 08:49:58;;;;;;;16.67;13.50;;;32.40;99.90;;;;;;4816445;29;21024;-85
2023/08/26 08:52:25;;;;;;;14.00;12.70;;;32.60;99.90;;;;;;4817741;29;20417;-85
2023/08/26 08:54:51;;;;;;;14.20;12.70;;;32.80;99.90;;;;;;4816126;29;20911;-84
2023/08/26 08:57:23;;;;;;;13.03;11.97;;;33.30;99.90;;;;;;4817782;29;20409;-84
2023/08/26 08:59:50;;;;;;;13.73;12.40;;;33.70;99.90;;;;;;4816246;29;20680;-84
2023/08/26 09:02:15;;;;;;;14.83;12.30;;;34.00;99.90;;;;;;4817406;29;20488;-84
2023/08/26 09:04:42;;;;;;;12.50;11.40;;;34.00;99.90;;;;;;4819017;29;20458;-85
2023/08/26 09:07:11;;;;;;;12.77;11.67;;;34.00;99.80;;;;;;4819055;29;20186;-85
2023/08/26 09:09:37;;;;;;;14.67;13.10;;;33.90;99.90;;;;;;4816991;29;20457;-84
2023/08/26 09:12:05;;;;;;;15.17;12.50;;;33.80;99.90;;;;;;4817411;29;20462;-84
2023/08/26 09:14:31;;;;;;;18.07;13.60;;;33.90;99.90;;;;;;4817320;29;20864;-83
2023/08/26 09:17:00;;;;;;;14.10;12.63;;;33.80;99.90;;;;;;4815884;29;20472;-83
2023/08/26 09:19:26;;;;;;;12.80;11.80;;;33.80;99.80;;;;;;4817744;29;20222;-84
2023/08/26 09:21:53;;;;;;;12.90;11.60;;;33.90;99.10;;;;;;4817262;29;20453;-85
2023/08/26 09:24:20;;;;;;;12.93;11.53;;;33.90;98.80;;;;;;4817060;29;20428;-85
2023/08/26 09:27:06;;;;;;;12.77;11.47;;;33.90;98.60;;;;;;4818069;29;20762;-84
2023/08/26 09:29:32;;;;;;;13.53;10.00;;;34.00;97.90;;;;;;4816914;29;20425;-85
2023/08/26 09:31:58;;;;;;;11.50;10.20;;;33.90;97.40;;;;;;4817043;29;20936;-85
2023/08/26 09:34:32;;;;;;;11.10;9.97;;;34.00;97.30;;;;;;4817252;29;20274;-85
2023/08/26 09:36:59;;;;;;;11.00;9.10;;;34.00;96.90;;;;;;4817485;29;20784;-86
2023/08/26 09:39:25;;;;;;;11.43;10.10;;;34.00;96.70;;;;;;4817547;29;20426;-84
2023/08/26 09:41:54;;;;;;;9.47;8.50;;;34.00;96.70;;;;;;4817009;29;20812;-84
2023/08/26 09:44:21;;;;;;;9.67;8.77;;;34.00;96.10;;;;;;4817482;29;20581;-84
2023/08/26 09:46:47;;;;;;;10.03;9.17;;;34.10;95.90;;;;;;4814313;29;20461;-84
2023/08/26 09:49:14;;;;;;;10.20;9.07;;;34.10;95.60;;;;;;4831412;29;20946;-84
2023/08/26 09:51:46;;;;;;;9.30;8.47;;;34.20;95.10;;;;;;4830989;29;21101;-84
2023/08/26 09:54:17;;;;;;;9.00;7.80;;;34.20;94.80;;;;;;4829968;29;20599;-85
2023/08/26 09:56:44;;;;;;;8.70;7.90;;;34.20;94.90;;;;;;4816906;29;20488;-82
2023/08/26 09:59:09;;;;;;;8.53;7.77;;;34.30;95.50;;;;;;4816888;29;20422;-82
2023/08/26 10:01:37;;;;;;;8.77;7.90;;;34.30;94.80;;;;;;4816809;29;20672;-84
2023/08/26 10:04:08;;;;;;;10.77;8.53;;;34.40;94.70;;;;;;4816738;29;20269;-85
2023/08/26 10:06:43;;;;;;;9.67;8.67;;;34.30;94.60;;;;;;4830540;29;21030;-84
2023/08/26 10:09:31;;;;;;;10.07;8.30;;;34.40;94.20;;;;;;4830451;29;20413;-84
2023/08/26 10:12:01;;;;;;;9.20;8.23;;;34.50;94.50;;;;;;4830497;29;20440;-84
2023/08/26 10:14:30;;;;;;;11.23;8.77;;;34.40;94.30;;;;;;4830590;29;20467;-84
2023/08/26 10:16:59;;;;;;;9.13;8.03;;;34.50;93.90;;;;;;4830122;29;20450;-83
2023/08/26 10:19:26;;;;;;;12.37;8.53;;;34.60;93.40;;;;;;4831499;29;20797;-84
2023/08/26 10:21:53;;;;;;;9.40;8.50;;;34.60;93.50;;;;;;4831890;29;20443;-84
2023/08/26 10:24:20;;;;;;;9.37;8.17;;;34.60;94.20;;;;;;4831721;29;20789;-84
2023/08/26 10:26:46;;;;;;;11.40;8.70;;;34.70;94.20;;;;;;4818083;29;20410;-84
2023/08/26 10:29:13;;;;;;;10.63;8.93;;;34.80;94.10;;;;;;4817663;29;20430;-84
2023/08/26 10:31:42;;;;;;;9.10;8.30;;;34.80;94.10;;;;;;4817159;29;20449;-84
2023/08/26 10:34:07;;;;;;;10.50;8.10;;;34.90;94.30;;;;;;4831347;29;20418;-84
2023/08/26 10:36:35;;;;;;;13.40;7.97;;;34.90;93.50;;;;;;4817404;29;20466;-84
2023/08/26 10:39:01;;;;;;;9.93;8.70;;;34.90;93.40;;;;;;4831431;29;20190;-84
2023/08/26 10:41:27;;;;;;;9.10;8.13;;;35.00;93.70;;;;;;4817784;29;20457;-84
2023/08/26 10:43:53;;;;;;;10.23;7.23;;;35.00;93.40;;;;;;4817719;29;20470;-85
2023/08/26 10:46:30;;;;;;;8.97;7.90;;;35.10;91.70;;;;;;4818031;29;20987;-84
2023/08/26 10:48:57;;;;;;;8.17;7.07;;;35.00;91.70;;;;;;4831450;29;20428;-84
2023/08/26 10:51:23;;;;;;;9.57;7.83;;;35.00;92.10;;;;;;4831381;29;20472;-84
2023/08/26 10:53:49;;;;;;;8.60;7.77;;;35.00;91.60;;;;;;4831237;29;20947;-84
2023/08/26 10:56:19;;;;;;;8.13;7.50;;;35.00;91.80;;;;;;4817261;29;20241;-84
2023/08/26 10:58:49;;;;;;;7.87;6.93;;;35.00;92.00;;;;;;4817574;29;20264;-84
2023/08/26 11:01:16;;;;;;;7.90;7.10;;;35.10;91.20;;;;;;4817424;29;21037;-84
2023/08/26 11:03:45;;;;;;;7.40;6.57;;;35.20;91.10;;;;;;4817153;29;20465;-84
2023/08/26 11:06:18;;;;;;;8.00;6.20;;;35.20;90.50;;;;;;4830729;29;20830;-84
2023/08/26 11:08:53;;;;;;;7.60;6.80;;;35.30;90.20;;;;;;4817352;29;20410;-84
2023/08/26 11:11:19;;;;;;;7.73;6.93;;;35.30;90.10;;;;;;4831489;29;20757;-84
2023/08/26 11:13:47;;;;;;;6.70;6.10;;;35.30;90.40;;;;;;4831050;29;20433;-84
2023/08/26 11:16:14;;;;;;;7.80;7.10;;;35.40;90.40;;;;;;4817614;29;20593;-85
2023/08/26 11:18:42;;;;;;;8.87;7.17;;;35.40;90.70;;;;;;4830824;29;20422;-84
2023/08/26 11:21:08;;;;;;;7.10;6.40;;;35.40;90.30;;;;;;4817430;29;20556;-85
2023/08/26 11:23:34;;;;;;;6.87;5.90;;;35.50;90.20;;;;;;4830909;29;20473;-84
2023/08/26 11:26:00;;;;;;;7.53;6.93;;;35.50;88.70;;;;;;4830623;29;20465;-84
2023/08/26 11:28:30;;;;;;;6.57;5.90;;;35.50;89.70;;;;;;4817134;29;20406;-84
2023/08/26 11:30:56;;;;;;;10.30;7.60;;;35.60;89.90;;;;;;4816708;29;20643;-84
2023/08/26 11:33:23;;;;;;;7.40;6.70;;;35.60;90.20;;;;;;4817087;29;20452;-84
2023/08/26 11:35:49;;;;;;;8.17;6.90;;;35.60;90.40;;;;;;4829689;29;20256;-84
2023/08/26 11:38:16;;;;;;;7.03;6.43;;;35.60;90.10;;;;;;4830402;29;20453;-85
2023/08/26 11:40:42;;;;;;;6.83;6.20;;;35.60;90.10;;;;;;4830800;29;20473;-84
2023/08/26 11:43:13;;;;;;;9.30;6.50;;;35.60;90.10;;;;;;4830577;29;20929;-84
2023/08/26 11:45:46;;;;;;;6.57;5.93;;;35.60;89.00;;;;;;4817214;29;20533;-85
2023/08/26 11:48:13;;;;;;;7.17;5.97;;;35.70;86.20;;;;;;4831045;29;20463;-85
2023/08/26 11:50:40;;;;;;;6.47;5.90;;;35.60;85.30;;;;;;4830600;29;20457;-84
2023/08/26 11:53:06;;;;;;;6.90;6.30;;;35.60;85.60;;;;;;4816667;29;20421;-84
2023/08/26 11:55:33;;;;;;;10.77;6.70;;;35.70;86.40;;;;;;4816563;29;20477;-84
2023/08/26 11:58:00;;;;;;;7.90;6.40;;;35.60;87.30;;;;;;4830625;29;20505;-84
2023/08/26 12:00:26;;;;;;;6.23;5.73;;;35.70;87.30;;;;;;4830357;29;20638;-84
2023/08/26 12:03:01;;;;;;;6.17;5.57;;;35.70;86.80;;;;;;4830141;29;20470;-85
2023/08/26 12:05:26;;;;;;;6.30;5.60;;;35.80;86.00;;;;;;4830586;29;20986;-85
2023/08/26 12:07:57;;;;;;;6.03;5.53;;;35.80;85.60;;;;;;4830279;29;20421;-83
2023/08/26 12:10:23;;;;;;;5.50;5.00;;;35.90;85.80;;;;;;4830635;29;20244;-84
2023/08/26 12:12:49;;;;;;;6.63;6.00;;;35.90;85.50;;;;;;4816109;29;20443;-84
2023/08/26 12:15:18;;;;;;;8.07;6.17;;;35.80;85.10;;;;;;4830522;29;20935;-85
2023/08/26 12:17:54;;;;;;;6.53;5.90;;;35.90;85.90;;;;;;4819816;29;20598;-84
2023/08/26 12:20:21;;;;;;;6.10;5.33;;;35.90;85.00;;;;;;4820181;29;20514;-84
2023/08/26 12:22:48;;;;;;;5.97;5.13;;;36.00;84.30;;;;;;4819716;29;20549;-84
2023/08/26 12:25:25;;;;;;;7.43;5.90;;;36.00;84.10;;;;;;4833876;29;20510;-84
2023/08/26 12:27:52;;;;;;;8.07;6.17;;;36.00;83.40;;;;;;4833545;29;20464;-84